Time;durP1;ratioP1;P1;durP2;ratioP2;P2;SDS_P1;SDS_P2;PMS_P1;PMS_P2;Temp;Humidity;BMP_temperature;BMP_pressure;BME280_temperature;BME280_humidity;BME280_pressure;Samples;Min_cycle;Max_cycle;Signal;HPM_P1;HPM_P2
2020/12/24 03:47:26;;;;;;;74.53;38.83;;;11.60;84.00;;;;;;4993852;23;20346;-76
2020/12/24 03:49:52;;;;;;;83.07;41.00;;;11.60;84.10;;;;;;4946497;29;20028;-76
2020/12/24 03:52:18;;;;;;;75.57;38.75;;;11.60;84.80;;;;;;4946454;29;20210;-75
2020/12/24 03:54:43;;;;;;;80.30;40.63;;;11.60;84.10;;;;;;4929665;29;20295;-75
2020/12/24 03:57:09;;;;;;;78.00;39.45;;;11.60;84.10;;;;;;4946348;29;20047;-75
2020/12/24 03:59:34;;;;;;;72.95;38.83;;;11.50;84.10;;;;;;4946471;29;20083;-76
2020/12/24 04:02:00;;;;;;;70.80;39.55;;;11.50;84.20;;;;;;4946388;29;20196;-75
2020/12/24 04:04:26;;;;;;;74.10;40.50;;;11.50;84.30;;;;;;4946474;29;20027;-75
2020/12/24 04:06:51;;;;;;;77.07;39.30;;;11.50;84.50;;;;;;4946403;29;20239;-76
2020/12/24 04:09:17;;;;;;;78.15;40.75;;;11.50;84.50;;;;;;4946158;29;20015;-75
2020/12/24 04:11:42;;;;;;;80.95;41.28;;;11.50;84.30;;;;;;4946510;29;20027;-77
2020/12/24 04:14:08;;;;;;;65.03;36.03;;;11.60;84.30;;;;;;4946403;29;20062;-75
2020/12/24 04:16:33;;;;;;;58.72;34.28;;;11.50;84.20;;;;;;4946026;29;20215;-76
2020/12/24 04:18:59;;;;;;;70.07;37.22;;;11.60;84.20;;;;;;4946191;29;20020;-75
2020/12/24 04:21:25;;;;;;;79.55;41.28;;;11.50;84.00;;;;;;4946150;29;20031;-75
2020/12/24 04:23:50;;;;;;;75.00;40.88;;;11.50;84.10;;;;;;4929055;29;20031;-75
2020/12/24 04:26:20;;;;;;;75.68;38.97;;;11.50;84.20;;;;;;4946046;29;20028;-76
2020/12/24 04:28:46;;;;;;;72.82;39.90;;;11.40;84.50;;;;;;4929294;29;20020;-75
2020/12/24 04:31:12;;;;;;;67.07;39.15;;;11.40;84.40;;;;;;4929209;29;20026;-76
2020/12/24 04:33:41;;;;;;;67.22;38.30;;;11.40;84.50;;;;;;4929093;29;20043;-75
2020/12/24 04:36:07;;;;;;;60.15;35.08;;;11.50;84.60;;;;;;4945913;29;20015;-75
2020/12/24 04:38:34;;;;;;;95.57;46.28;;;11.50;84.60;;;;;;4946150;29;20173;-75
2020/12/24 04:41:00;;;;;;;68.25;38.08;;;11.50;84.40;;;;;;4946139;29;20250;-75
2020/12/24 04:43:29;;;;;;;66.60;36.70;;;11.50;84.30;;;;;;4945778;29;20055;-76
2020/12/24 04:45:55;;;;;;;64.60;36.75;;;11.50;84.20;;;;;;4945401;29;20303;-75
2020/12/24 04:48:21;;;;;;;71.10;39.30;;;11.50;84.10;;;;;;4945861;29;20087;-75
2020/12/24 04:50:52;;;;;;;82.43;41.55;;;11.50;84.20;;;;;;4945516;29;20500;-75
2020/12/24 04:53:19;;;;;;;62.85;36.58;;;11.50;84.40;;;;;;4945762;29;20193;-75
2020/12/24 04:55:45;;;;;;;71.53;37.65;;;11.50;84.50;;;;;;4945533;29;20027;-75
2020/12/24 04:58:11;;;;;;;65.17;35.63;;;11.50;84.70;;;;;;4945460;29;20020;-75
2020/12/24 05:00:39;;;;;;;78.63;41.40;;;11.50;84.60;;;;;;4928367;29;20378;-75
2020/12/24 05:03:07;;;;;;;84.95;43.08;;;11.50;84.50;;;;;;4928621;29;20042;-75
2020/12/24 05:05:33;;;;;;;78.88;41.55;;;11.60;84.30;;;;;;4947856;29;20022;-75
2020/12/24 05:08:04;;;;;;;73.32;39.25;;;11.50;84.40;;;;;;4949615;29;20352;-76
2020/12/24 05:10:30;;;;;;;64.70;36.72;;;11.50;84.50;;;;;;4949374;29;20015;-76
2020/12/24 05:12:56;;;;;;;84.40;43.25;;;11.50;84.60;;;;;;4932450;29;20027;-76
2020/12/24 05:15:26;;;;;;;74.18;40.40;;;11.50;84.60;;;;;;4949427;29;20266;-75
2020/12/24 05:17:52;;;;;;;72.78;40.70;;;11.50;84.70;;;;;;4949101;29;20023;-75
2020/12/24 05:20:18;;;;;;;76.80;40.83;;;11.40;85.10;;;;;;4949329;29;20338;-75
2020/12/24 05:22:44;;;;;;;68.32;37.45;;;11.40;85.40;;;;;;4949355;29;20202;-76
2020/12/24 05:25:11;;;;;;;70.47;38.38;;;11.40;85.40;;;;;;4949107;29;20232;-75
2020/12/24 05:27:40;;;;;;;75.88;39.15;;;11.40;85.40;;;;;;4949238;29;20012;-75
2020/12/24 05:30:06;;;;;;;63.33;35.13;;;11.40;85.30;;;;;;4949116;29;20024;-75
2020/12/24 05:32:32;;;;;;;53.78;33.10;;;11.40;85.20;;;;;;4931831;29;20490;-75
2020/12/24 05:35:12;;;;;;;61.95;35.03;;;11.50;85.20;;;;;;4948997;29;20058;-75
2020/12/24 05:37:39;;;;;;;68.00;34.35;;;11.40;85.00;;;;;;4948803;29;20020;-75
2020/12/24 05:40:24;;;;;;;68.60;36.83;;;11.40;85.20;;;;;;4931881;29;20054;-75
2020/12/24 05:42:55;;;;;;;60.05;33.83;;;11.40;85.30;;;;;;4931796;29;20377;-75
2020/12/24 05:45:23;;;;;;;59.88;33.30;;;11.50;85.20;;;;;;4948726;29;20120;-75
2020/12/24 05:48:10;;;;;;;61.88;33.92;;;11.50;85.20;;;;;;4911557;29;20072;-75
2020/12/24 05:50:36;;;;;;;;;;;11.50;85.20;;;;;;4911396;29;20064;-76
2020/12/24 05:53:07;;;;;;;51.63;30.13;;;11.60;85.00;;;;;;4909688;29;19908;-76
2020/12/24 05:55:38;;;;;;;48.65;29.02;;;11.60;84.70;;;;;;4909457;29;20029;-75
2020/12/24 05:58:04;;;;;;;50.95;29.60;;;11.50;84.70;;;;;;4911144;29;20284;-75
2020/12/24 06:00:41;;;;;;;66.23;31.13;;;11.50;84.70;;;;;;4910571;29;20021;-76
2020/12/24 06:03:16;;;;;;;51.70;28.65;;;11.50;84.60;;;;;;4910590;29;20017;-76
2020/12/24 06:05:54;;;;;;;53.72;30.52;;;11.60;84.60;;;;;;4910481;29;20036;-75
2020/12/24 06:08:31;;;;;;;51.45;28.23;;;11.40;84.70;;;;;;4910695;29;20021;-75
2020/12/24 06:11:09;;;;;;;57.55;30.35;;;11.40;84.70;;;;;;4910526;29;20017;-75
2020/12/24 06:13:43;;;;;;;59.95;31.25;;;11.50;84.80;;;;;;4909210;29;20104;-76
2020/12/24 06:16:13;;;;;;;49.30;28.88;;;11.50;84.70;;;;;;4910091;29;20016;-75
2020/12/24 06:18:44;;;;;;;47.28;27.13;;;11.50;84.70;;;;;;4909327;29;20032;-76
2020/12/24 06:21:17;;;;;;;53.92;29.35;;;11.60;84.70;;;;;;4910385;29;20024;-75
2020/12/24 06:24:01;;;;;;;54.13;30.38;;;11.60;84.50;;;;;;4910136;29;20200;-76
2020/12/24 06:26:32;;;;;;;53.03;29.60;;;11.60;84.30;;;;;;4910162;29;20220;-75
2020/12/24 06:29:03;;;;;;;53.97;30.33;;;11.70;84.30;;;;;;4910085;29;20027;-76
2020/12/24 06:31:29;;;;;;;49.28;29.92;;;11.70;84.10;;;;;;4908803;29;20323;-76
2020/12/24 06:33:56;;;;;;;56.55;30.15;;;11.70;84.10;;;;;;4909037;29;20024;-75
2020/12/24 06:36:33;;;;;;;55.67;31.40;;;11.70;84.00;;;;;;4908790;29;20024;-76
2020/12/24 06:38:59;;;;;;;49.40;28.00;;;11.70;84.00;;;;;;4909886;29;20020;-75
2020/12/24 06:41:34;;;;;;;47.80;27.40;;;11.70;83.80;;;;;;4908779;29;20032;-75
2020/12/24 06:44:00;;;;;;;57.03;31.45;;;11.60;83.70;;;;;;4909749;29;20029;-76
2020/12/24 06:46:26;;;;;;;51.00;28.48;;;11.60;83.80;;;;;;4921220;29;20116;-76
2020/12/24 06:49:00;;;;;;;49.05;29.30;;;11.60;83.90;;;;;;4930614;29;20022;-76
2020/12/24 06:51:26;;;;;;;47.95;27.98;;;11.60;84.00;;;;;;4947470;29;20295;-75
2020/12/24 06:53:51;;;;;;;61.10;34.05;;;11.60;83.90;;;;;;4947602;29;20023;-75
2020/12/24 06:56:27;;;;;;;86.95;47.05;;;11.60;83.70;;;;;;4946957;29;20211;-75
2020/12/24 06:58:57;;;;;;;93.90;49.07;;;11.60;83.80;;;;;;4947146;29;20027;-75
2020/12/24 07:01:37;;;;;;;82.55;44.63;;;11.60;83.70;;;;;;4946942;29;20567;-76
2020/12/24 07:04:11;;;;;;;71.85;36.28;;;11.70;83.60;;;;;;4947116;29;20023;-75
2020/12/24 07:06:39;;;;;;;63.65;34.22;;;11.70;83.40;;;;;;4945726;29;20016;-75
2020/12/24 07:09:05;;;;;;;62.40;33.05;;;11.60;83.40;;;;;;4930252;29;20063;-75
2020/12/24 07:11:42;;;;;;;53.33;30.77;;;11.60;83.50;;;;;;4947183;29;20023;-75
2020/12/24 07:14:24;;;;;;;;;;;11.60;83.50;;;;;;4947481;29;20093;-76
2020/12/24 07:16:51;;;;;;;55.03;30.55;;;11.60;83.40;;;;;;4946918;29;19903;-75
2020/12/24 07:19:18;;;;;;;52.25;30.60;;;11.50;83.80;;;;;;4947137;29;20317;-76
2020/12/24 07:21:48;;;;;;;47.90;28.45;;;11.50;83.90;;;;;;4959295;29;20023;-76
2020/12/24 07:24:15;;;;;;;49.00;30.88;;;11.50;84.00;;;;;;4946939;29;20031;-75
2020/12/24 07:26:41;;;;;;;;;;;11.60;83.90;;;;;;4930562;29;20254;-75
2020/12/24 07:29:08;;;;;;;57.70;29.50;;;11.70;83.70;;;;;;4959704;29;19914;-75
2020/12/24 07:31:36;;;;;;;54.40;28.40;;;11.70;83.60;;;;;;4959064;28;20094;-75
2020/12/24 07:34:02;;;;;;;55.35;30.15;;;11.70;83.50;;;;;;4955069;29;20023;-75
2020/12/24 07:36:29;;;;;;;54.55;28.40;;;11.60;83.60;;;;;;4954512;29;20024;-75
2020/12/24 07:38:54;;;;;;;46.60;27.90;;;11.60;83.60;;;;;;4938361;29;20020;-76
2020/12/24 07:41:21;;;;;;;52.08;28.40;;;11.60;83.60;;;;;;4952309;29;20051;-76
2020/12/24 07:43:47;;;;;;;58.05;30.88;;;11.60;83.50;;;;;;4938602;29;20386;-76
2020/12/24 07:46:14;;;;;;;48.13;30.38;;;11.60;83.40;;;;;;4934548;29;20040;-75
2020/12/24 07:48:39;;;;;;;57.28;31.48;;;11.70;83.10;;;;;;4957266;28;20090;-75
2020/12/24 07:51:08;;;;;;;53.88;30.20;;;11.60;83.40;;;;;;4958070;28;20034;-75
2020/12/24 07:53:34;;;;;;;54.97;28.10;;;11.60;83.60;;;;;;4956389;29;20259;-76
2020/12/24 07:56:08;;;;;;;55.75;29.20;;;11.60;83.60;;;;;;4941934;29;20031;-76
2020/12/24 07:58:34;;;;;;;52.25;29.20;;;11.50;83.70;;;;;;4941930;29;20023;-76
2020/12/24 08:01:03;;;;;;;50.97;28.98;;;11.60;83.80;;;;;;4942201;29;20030;-76
2020/12/24 08:03:28;;;;;;;54.70;31.17;;;11.50;83.90;;;;;;4953184;29;20015;-75
2020/12/24 08:06:05;;;;;;;50.55;28.70;;;11.60;83.80;;;;;;4956108;29;20018;-76
2020/12/24 08:08:35;;;;;;;50.10;29.15;;;11.60;83.80;;;;;;4960023;29;20022;-76
2020/12/24 08:11:01;;;;;;;51.83;30.08;;;11.60;83.70;;;;;;4953865;29;20046;-76
2020/12/24 08:13:27;;;;;;;55.20;30.95;;;11.60;83.40;;;;;;4951211;29;20024;-76
2020/12/24 08:15:56;;;;;;;56.92;32.63;;;11.60;83.70;;;;;;4936438;29;20104;-76
2020/12/24 08:18:27;;;;;;;57.30;34.22;;;11.60;83.80;;;;;;4939229;29;20099;-77
2020/12/24 08:20:58;;;;;;;63.10;33.17;;;11.60;84.10;;;;;;4957777;29;20026;-77
2020/12/24 08:23:34;;;;;;;64.15;35.55;;;11.60;84.10;;;;;;4939891;29;20015;-76
2020/12/24 08:25:59;;;;;;;57.83;33.50;;;11.70;84.10;;;;;;4947164;29;20039;-76
2020/12/24 08:28:26;;;;;;;65.85;35.95;;;11.70;84.10;;;;;;4933654;29;20297;-76
2020/12/24 08:30:52;;;;;;;57.50;34.15;;;11.70;84.10;;;;;;4955851;28;20078;-76
2020/12/24 08:33:19;;;;;;;65.35;35.13;;;11.70;83.90;;;;;;4954177;29;20012;-76
2020/12/24 08:35:44;;;;;;;64.32;35.53;;;11.70;83.80;;;;;;4935362;29;20038;-76
2020/12/24 08:38:18;;;;;;;59.95;32.58;;;11.70;83.70;;;;;;4946193;29;20027;-76
2020/12/24 08:40:44;;;;;;;65.95;36.78;;;11.80;83.80;;;;;;4931496;29;20215;-75
2020/12/24 08:43:12;;;;;;;71.97;38.08;;;11.80;83.90;;;;;;4952626;29;20045;-76
2020/12/24 08:45:50;;;;;;;67.28;36.25;;;11.70;84.00;;;;;;4956187;28;20018;-76
2020/12/24 08:48:36;;;;;;;63.20;35.05;;;11.70;84.40;;;;;;4957041;29;20203;-76
2020/12/24 08:51:15;;;;;;;67.57;37.10;;;11.70;84.60;;;;;;4955348;29;20058;-75
2020/12/24 08:53:41;;;;;;;71.18;38.08;;;11.70;84.60;;;;;;4957991;29;20023;-75
2020/12/24 08:56:17;;;;;;;75.03;40.10;;;11.70;84.50;;;;;;4945334;29;20094;-76
2020/12/24 08:58:53;;;;;;;78.68;40.13;;;11.80;84.80;;;;;;4957384;29;20027;-76
2020/12/24 09:01:19;;;;;;;67.32;35.83;;;11.80;84.70;;;;;;4954070;29;20077;-76
2020/12/24 09:03:46;;;;;;;62.88;35.95;;;11.80;84.60;;;;;;4934733;29;20027;-76
2020/12/24 09:08:51;;;;;;;74.30;37.88;;;11.80;84.60;;;;;;5025503;28;106683;-76
2020/12/24 09:11:27;;;;;;;80.22;41.58;;;11.80;84.60;;;;;;5014787;28;20018;-76
2020/12/24 09:14:01;;;;;;;73.22;40.70;;;11.80;84.90;;;;;;5019025;28;20022;-76
2020/12/24 09:16:29;;;;;;;73.53;39.75;;;11.80;85.20;;;;;;5030604;28;20038;-76
2020/12/24 09:19:03;;;;;;;69.60;38.55;;;11.80;85.20;;;;;;5052296;28;20018;-77
2020/12/24 09:21:29;;;;;;;70.45;40.88;;;11.80;85.30;;;;;;5035425;28;20022;-77
2020/12/24 09:24:07;;;;;;;71.13;40.05;;;11.90;85.40;;;;;;5016404;28;20045;-77
2020/12/24 09:26:50;;;;;;;72.28;38.53;;;11.90;85.50;;;;;;5020311;28;20030;-77
2020/12/24 09:29:17;;;;;;;75.63;41.08;;;11.90;85.80;;;;;;5035828;28;20045;-77
2020/12/24 09:32:00;;;;;;;74.93;41.97;;;12.00;85.90;;;;;;5018009;28;20034;-76
2020/12/24 09:34:28;;;;;;;85.50;45.70;;;12.00;86.10;;;;;;5034754;28;20022;-77
2020/12/24 09:36:54;;;;;;;84.63;45.67;;;12.10;86.10;;;;;;5035331;28;20033;-77
2020/12/24 09:39:20;;;;;;;80.95;43.28;;;12.10;86.20;;;;;;5018481;28;20408;-76
2020/12/24 09:41:48;;;;;;;87.45;44.92;;;12.20;86.20;;;;;;5016693;28;20030;-77
2020/12/24 09:44:15;;;;;;;87.65;45.60;;;12.20;86.10;;;;;;5020236;28;20015;-76
2020/12/24 09:46:41;;;;;;;87.65;47.75;;;12.20;86.10;;;;;;5019345;28;20037;-77
2020/12/24 09:49:07;;;;;;;62.38;34.67;;;12.30;86.20;;;;;;5019525;28;20031;-77
2020/12/24 09:51:36;;;;;;;53.05;29.02;;;12.30;86.40;;;;;;5023065;28;20042;-78
2020/12/24 09:54:06;;;;;;;43.88;25.00;;;12.20;87.30;;;;;;5018982;28;20411;-77
2020/12/24 09:56:32;;;;;;;43.00;24.10;;;12.20;88.00;;;;;;5018426;28;20065;-77
2020/12/24 09:58:59;;;;;;;33.23;20.03;;;12.30;88.10;;;;;;5035265;28;20041;-76
2020/12/24 10:01:24;;;;;;;30.43;19.23;;;12.40;88.90;;;;;;5030082;28;20014;-77
2020/12/24 10:03:50;;;;;;;26.60;16.52;;;12.50;88.60;;;;;;5044803;28;20634;-77
2020/12/24 10:06:16;;;;;;;14.20;8.73;;;12.50;88.70;;;;;;5016652;28;20030;-77
2020/12/24 10:08:42;;;;;;;21.30;9.77;;;12.50;89.00;;;;;;5018490;28;20249;-77
2020/12/24 10:11:15;;;;;;;17.52;8.90;;;12.50;90.00;;;;;;5020207;28;20025;-77
2020/12/24 10:13:41;;;;;;;11.95;6.88;;;12.60;90.00;;;;;;5035244;28;20037;-76
2020/12/24 10:16:07;;;;;;;12.10;7.72;;;12.60;89.80;;;;;;5016676;28;20053;-76
2020/12/24 10:18:33;;;;;;;10.60;6.78;;;12.70;89.70;;;;;;5029927;28;20026;-77
2020/12/24 10:20:59;;;;;;;14.82;6.85;;;12.80;89.20;;;;;;5006194;28;20033;-77
2020/12/24 10:23:25;;;;;;;13.70;6.40;;;12.90;89.00;;;;;;5020567;28;20018;-77
2020/12/24 10:25:51;;;;;;;12.73;6.18;;;13.00;89.20;;;;;;5005468;28;20364;-77
2020/12/24 10:28:17;;;;;;;6.70;4.05;;;13.00;88.40;;;;;;5005303;28;20037;-77
2020/12/24 10:30:43;;;;;;;7.75;4.82;;;13.00;88.00;;;;;;5005380;28;20101;-77
2020/12/24 10:33:09;;;;;;;9.33;4.13;;;13.10;87.90;;;;;;5006244;28;20026;-77
2020/12/24 10:35:36;;;;;;;6.35;4.20;;;13.00;88.20;;;;;;5021732;28;20277;-77
2020/12/24 10:38:05;;;;;;;6.43;4.10;;;12.90;88.50;;;;;;5005042;28;20022;-77
2020/12/24 10:40:31;;;;;;;6.03;3.05;;;13.00;88.40;;;;;;5020099;28;20029;-77
2020/12/24 10:42:57;;;;;;;4.60;2.70;;;13.00;88.20;;;;;;5006011;28;20066;-77
2020/12/24 10:45:25;;;;;;;4.32;2.60;;;13.10;87.80;;;;;;5002345;28;20238;-77
2020/12/24 10:47:51;;;;;;;4.80;2.33;;;13.10;87.60;;;;;;5003343;28;20037;-77
2020/12/24 10:50:17;;;;;;;5.90;2.30;;;13.20;87.00;;;;;;4986580;28;20198;-76
2020/12/24 10:52:43;;;;;;;5.47;2.28;;;13.30;87.00;;;;;;4986219;28;20302;-76
2020/12/24 10:55:09;;;;;;;4.25;2.22;;;13.30;86.70;;;;;;4993936;28;20026;-76
2020/12/24 10:57:35;;;;;;;6.30;2.55;;;13.30;86.50;;;;;;5000995;28;20034;-77
2020/12/24 11:00:01;;;;;;;4.20;2.33;;;13.40;86.20;;;;;;5003577;28;20053;-77
2020/12/24 11:02:27;;;;;;;5.20;2.22;;;13.30;86.20;;;;;;5000297;28;20046;-76
2020/12/24 11:04:52;;;;;;;4.07;2.10;;;13.30;86.40;;;;;;4999468;28;20084;-77
2020/12/24 11:07:18;;;;;;;5.50;1.70;;;13.40;86.20;;;;;;5004957;28;20077;-76
2020/12/24 11:09:44;;;;;;;3.03;1.55;;;13.40;85.80;;;;;;5005084;28;20154;-76
2020/12/24 11:12:10;;;;;;;5.45;2.08;;;13.50;85.50;;;;;;5004927;28;20089;-77
2020/12/24 11:14:35;;;;;;;3.95;1.75;;;13.40;85.10;;;;;;5005203;28;20030;-77
2020/12/24 11:17:02;;;;;;;3.95;1.60;;;13.40;85.20;;;;;;5019835;28;20336;-77
2020/12/24 11:19:28;;;;;;;2.22;1.38;;;13.40;84.90;;;;;;5020024;28;20030;-76
2020/12/24 11:21:54;;;;;;;4.18;1.50;;;13.30;84.10;;;;;;5004063;28;20065;-76
2020/12/24 11:24:19;;;;;;;3.00;1.80;;;13.30;84.20;;;;;;5003750;28;20089;-76
2020/12/24 11:26:46;;;;;;;4.80;1.55;;;13.20;83.50;;;;;;5019988;28;20104;-76
2020/12/24 11:29:11;;;;;;;2.50;1.48;;;13.20;81.40;;;;;;5003321;28;20026;-76
2020/12/24 11:31:38;;;;;;;6.32;2.17;;;13.20;82.00;;;;;;5003660;28;20022;-76
2020/12/24 11:34:08;;;;;;;3.75;1.90;;;13.20;81.90;;;;;;4984258;28;20034;-76
2020/12/24 11:36:34;;;;;;;3.28;2.03;;;13.10;81.20;;;;;;4994716;28;20241;-76
2020/12/24 11:39:01;;;;;;;1.85;1.58;;;13.10;81.40;;;;;;5003810;28;20026;-76
2020/12/24 11:41:29;;;;;;;2.30;1.52;;;13.00;80.50;;;;;;5005849;28;20028;-77
2020/12/24 11:43:55;;;;;;;2.25;1.60;;;12.90;79.60;;;;;;5029147;28;20105;-77
2020/12/24 11:46:23;;;;;;;7.78;2.95;;;12.90;79.70;;;;;;5033811;28;20092;-76
2020/12/24 11:48:52;;;;;;;5.25;2.30;;;13.00;80.70;;;;;;5004766;28;20022;-76
2020/12/24 11:51:20;;;;;;;3.08;1.90;;;13.10;80.60;;;;;;5019693;28;20038;-77
2020/12/24 11:53:47;;;;;;;3.33;2.42;;;13.00;80.20;;;;;;5002739;28;20023;-76
2020/12/24 11:56:14;;;;;;;5.35;1.90;;;13.20;80.00;;;;;;5003942;28;20089;-76
2020/12/24 11:58:40;;;;;;;7.45;2.55;;;13.00;78.70;;;;;;5019284;28;20101;-76
2020/12/24 12:01:06;;;;;;;2.97;2.30;;;13.20;79.40;;;;;;5003482;28;20309;-76
2020/12/24 12:03:32;;;;;;;4.55;1.88;;;13.20;79.10;;;;;;5004126;28;20033;-76
2020/12/24 12:05:57;;;;;;;2.00;1.33;;;13.20;77.20;;;;;;5003590;28;20265;-77
2020/12/24 12:08:23;;;;;;;7.03;1.33;;;12.90;76.00;;;;;;5002749;28;20109;-76
2020/12/24 12:10:49;;;;;;;4.50;1.17;;;12.80;74.80;;;;;;4999158;28;20172;-76
2020/12/24 12:13:15;;;;;;;4.30;2.08;;;12.70;73.70;;;;;;4983659;28;20098;-76
2020/12/24 12:15:42;;;;;;;7.03;2.15;;;12.60;74.60;;;;;;5002174;28;20333;-76
2020/12/24 12:18:08;;;;;;;;;;;12.60;74.90;;;;;;4997976;28;20038;-77
2020/12/24 12:20:34;;;;;;;1.97;0.80;;;12.30;73.40;;;;;;5018790;28;19912;-76
2020/12/24 12:23:00;;;;;;;6.40;2.70;;;12.40;74.50;;;;;;5002682;28;20026;-76
2020/12/24 12:25:26;;;;;;;5.55;1.77;;;12.60;74.10;;;;;;5007759;28;20360;-76
2020/12/24 12:27:52;;;;;;;3.22;1.65;;;12.60;74.20;;;;;;5000092;28;20222;-76
2020/12/24 12:30:18;;;;;;;3.13;1.15;;;12.30;73.10;;;;;;4986250;28;20309;-76
2020/12/24 12:32:44;;;;;;;4.18;1.30;;;12.30;72.80;;;;;;5002294;28;20034;-77
2020/12/24 12:35:09;;;;;;;4.15;1.67;;;12.30;73.30;;;;;;5002477;28;20026;-77
2020/12/24 12:37:36;;;;;;;3.58;1.10;;;12.10;72.10;;;;;;5003849;28;20026;-77
2020/12/24 12:40:04;;;;;;;1.27;0.90;;;12.20;72.70;;;;;;5002961;28;20030;-76
2020/12/24 12:42:31;;;;;;;4.88;1.52;;;12.50;72.40;;;;;;5001038;28;20034;-77
2020/12/24 12:44:57;;;;;;;2.80;0.88;;;12.60;71.20;;;;;;5003279;28;20010;-76
2020/12/24 12:47:24;;;;;;;1.40;0.77;;;12.60;70.60;;;;;;4997711;28;20030;-76
2020/12/24 12:49:50;;;;;;;1.85;1.02;;;12.60;70.70;;;;;;5002409;28;20047;-76
2020/12/24 12:52:16;;;;;;;1.77;0.70;;;12.60;71.00;;;;;;5003517;28;20030;-76
2020/12/24 12:54:43;;;;;;;1.48;0.80;;;12.60;70.10;;;;;;5018890;28;20060;-77
2020/12/24 12:57:09;;;;;;;2.08;0.80;;;12.80;69.80;;;;;;5013004;28;20225;-77
2020/12/24 12:59:34;;;;;;;2.05;0.98;;;12.80;69.90;;;;;;5026146;28;20022;-77
2020/12/24 13:02:00;;;;;;;3.15;0.77;;;12.80;68.50;;;;;;4992366;28;20053;-77
2020/12/24 13:04:26;;;;;;;4.93;1.77;;;12.60;68.00;;;;;;5002186;28;20318;-77
2020/12/24 13:06:52;;;;;;;1.42;0.70;;;12.60;69.60;;;;;;5010503;28;20018;-76
2020/12/24 13:09:17;;;;;;;5.40;2.00;;;12.70;69.50;;;;;;5038661;28;20042;-77
2020/12/24 13:11:49;;;;;;;2.85;1.10;;;12.70;68.80;;;;;;5038317;28;20030;-76
2020/12/24 13:14:22;;;;;;;3.33;1.13;;;12.90;68.70;;;;;;5000380;28;20046;-76
2020/12/24 13:16:48;;;;;;;3.25;1.50;;;12.90;68.50;;;;;;4999961;28;20037;-76
2020/12/24 13:19:15;;;;;;;1.30;0.90;;;12.80;68.40;;;;;;5019001;28;20041;-77
2020/12/24 13:21:41;;;;;;;3.92;1.20;;;12.90;68.90;;;;;;5008814;28;20273;-77
2020/12/24 13:24:07;;;;;;;1.85;1.20;;;12.90;68.40;;;;;;5021918;28;20030;-77
2020/12/24 13:26:32;;;;;;;4.55;1.50;;;12.90;68.60;;;;;;5017048;28;20034;-76
2020/12/24 13:28:58;;;;;;;3.58;1.70;;;12.90;68.30;;;;;;5002141;28;20045;-77
2020/12/24 13:31:24;;;;;;;4.47;1.40;;;12.80;67.00;;;;;;5015379;28;20033;-76
2020/12/24 13:33:50;;;;;;;1.83;0.60;;;12.80;67.00;;;;;;4986719;28;20023;-77
2020/12/24 13:36:16;;;;;;;3.33;1.13;;;12.80;65.90;;;;;;5003442;28;20337;-76
2020/12/24 13:38:41;;;;;;;4.53;1.00;;;12.80;66.00;;;;;;5022094;28;20029;-76
2020/12/24 13:41:07;;;;;;;3.60;0.90;;;12.90;66.10;;;;;;5019768;28;20187;-76
2020/12/24 13:43:33;;;;;;;2.15;1.02;;;12.90;64.80;;;;;;5001730;28;20089;-77
2020/12/24 13:45:59;;;;;;;2.65;1.05;;;12.90;65.50;;;;;;5002170;28;20026;-77
2020/12/24 13:48:24;;;;;;;3.42;1.27;;;12.80;63.30;;;;;;5002942;28;20085;-77
2020/12/24 13:50:52;;;;;;;5.47;1.27;;;12.80;64.30;;;;;;5001785;28;20383;-76
2020/12/24 13:53:18;;;;;;;4.25;1.40;;;12.90;64.10;;;;;;5017314;28;20045;-76
2020/12/24 13:55:44;;;;;;;2.43;1.10;;;12.90;64.00;;;;;;5006109;28;20034;-76
2020/12/24 13:58:10;;;;;;;3.33;0.90;;;13.00;64.00;;;;;;5008232;28;20037;-77
2020/12/24 14:00:36;;;;;;;3.38;1.30;;;12.90;63.20;;;;;;5005705;28;20279;-76
2020/12/24 14:03:01;;;;;;;4.22;1.75;;;12.90;61.50;;;;;;5004635;28;20089;-76
2020/12/24 14:05:27;;;;;;;6.97;1.75;;;12.90;62.00;;;;;;5021743;28;20049;-77
2020/12/24 14:07:54;;;;;;;6.22;1.10;;;12.90;62.20;;;;;;5021379;28;20046;-77
2020/12/24 14:10:20;;;;;;;1.35;0.88;;;13.00;61.50;;;;;;5026458;28;20033;-76
2020/12/24 14:12:46;;;;;;;3.95;1.08;;;13.10;61.80;;;;;;5025155;28;20370;-76
2020/12/24 14:15:11;;;;;;;4.88;1.60;;;12.80;58.90;;;;;;5025146;28;20034;-77
2020/12/24 14:17:37;;;;;;;4.30;1.15;;;12.90;59.60;;;;;;5025243;28;20030;-76
2020/12/24 14:20:04;;;;;;;2.50;0.88;;;13.00;59.80;;;;;;5005852;28;20026;-76
2020/12/24 14:22:29;;;;;;;5.43;0.70;;;13.00;60.00;;;;;;5006793;28;20026;-77
2020/12/24 14:24:55;;;;;;;3.92;1.25;;;13.10;58.90;;;;;;5006748;28;20096;-77
2020/12/24 14:27:21;;;;;;;5.05;1.10;;;12.90;58.50;;;;;;5005836;28;20309;-76
2020/12/24 14:29:47;;;;;;;2.45;0.98;;;13.00;58.90;;;;;;4989333;28;20082;-76
2020/12/24 14:32:12;;;;;;;4.93;0.98;;;13.10;59.00;;;;;;4989384;28;20030;-76
2020/12/24 14:34:39;;;;;;;7.85;2.05;;;13.10;58.60;;;;;;5005231;28;20026;-76
2020/12/24 14:37:05;;;;;;;1.93;0.80;;;13.20;58.90;;;;;;5006409;28;20179;-76
2020/12/24 14:39:34;;;;;;;2.37;0.70;;;13.10;57.80;;;;;;5005302;28;20572;-77
2020/12/24 14:42:00;;;;;;;3.35;0.90;;;13.10;58.50;;;;;;5006305;28;20040;-76
2020/12/24 14:44:32;;;;;;;5.13;1.27;;;13.10;57.90;;;;;;5005177;28;20029;-77
2020/12/24 14:46:57;;;;;;;2.35;1.27;;;13.10;57.80;;;;;;5005142;28;20077;-76
2020/12/24 14:49:23;;;;;;;3.92;1.00;;;13.10;57.90;;;;;;5005202;28;20199;-76
2020/12/24 14:51:52;;;;;;;5.50;1.23;;;12.90;57.40;;;;;;5004884;28;20026;-76
2020/12/24 14:54:19;;;;;;;3.13;1.40;;;12.90;58.40;;;;;;5002685;28;20035;-76
2020/12/24 14:56:45;;;;;;;3.95;1.30;;;12.90;58.00;;;;;;5004866;28;20045;-77
2020/12/24 14:59:11;;;;;;;7.88;1.42;;;12.70;58.40;;;;;;4988605;28;20042;-76
2020/12/24 15:01:37;;;;;;;2.88;1.27;;;12.50;58.20;;;;;;5021196;28;20194;-77
2020/12/24 15:04:06;;;;;;;2.27;0.93;;;12.50;59.20;;;;;;5021175;28;20315;-76
2020/12/24 15:06:32;;;;;;;4.75;1.63;;;12.60;59.70;;;;;;5005705;28;20350;-76
2020/12/24 15:08:58;;;;;;;6.73;1.57;;;12.80;59.60;;;;;;5005544;28;20050;-77
2020/12/24 15:11:23;;;;;;;5.38;1.27;;;12.60;59.10;;;;;;5021273;28;20092;-76
2020/12/24 15:13:49;;;;;;;2.45;1.00;;;12.50;59.50;;;;;;5020670;28;20022;-76
2020/12/24 15:16:15;;;;;;;4.72;1.00;;;12.70;59.90;;;;;;5002183;28;20031;-77
2020/12/24 15:18:41;;;;;;;4.75;1.50;;;12.80;59.80;;;;;;4990906;28;20023;-76
2020/12/24 15:21:07;;;;;;;3.17;1.50;;;12.60;59.60;;;;;;4984985;28;20034;-76
2020/12/24 15:23:32;;;;;;;3.03;1.52;;;12.70;60.20;;;;;;4991366;28;20073;-76
2020/12/24 15:25:58;;;;;;;9.45;4.90;;;12.90;59.40;;;;;;5003211;28;20353;-77
2020/12/24 15:28:24;;;;;;;4.82;1.05;;;12.70;59.70;;;;;;5019289;28;20622;-77
2020/12/24 15:30:50;;;;;;;5.18;2.38;;;12.70;59.50;;;;;;5004092;28;20291;-77
2020/12/24 15:33:16;;;;;;;6.10;3.13;;;12.80;60.00;;;;;;5003689;28;20072;-77
2020/12/24 15:35:43;;;;;;;3.28;1.10;;;12.90;60.00;;;;;;5001885;28;20066;-76
2020/12/24 15:38:11;;;;;;;3.00;1.20;;;12.90;60.10;;;;;;5003919;28;20048;-76
2020/12/24 15:40:43;;;;;;;5.95;2.90;;;12.90;59.90;;;;;;5002266;28;20269;-76
2020/12/24 15:43:09;;;;;;;2.10;1.27;;;12.90;60.30;;;;;;5015884;28;20202;-76
2020/12/24 15:45:35;;;;;;;6.47;3.33;;;13.00;60.30;;;;;;5018626;28;20018;-77
2020/12/24 15:48:00;;;;;;;8.32;2.75;;;13.00;60.20;;;;;;5001806;28;20037;-77
2020/12/24 15:50:26;;;;;;;15.23;7.03;;;13.10;60.20;;;;;;5003282;28;20030;-76
2020/12/24 15:52:54;;;;;;;7.18;2.70;;;13.10;60.20;;;;;;5002817;28;20080;-76
2020/12/24 15:55:23;;;;;;;4.05;1.33;;;13.00;60.30;;;;;;5003170;28;20118;-77
2020/12/24 15:57:50;;;;;;;5.40;1.67;;;13.00;60.20;;;;;;4998733;28;20030;-76
2020/12/24 16:00:16;;;;;;;9.13;1.52;;;13.10;60.80;;;;;;5000133;28;20022;-77
2020/12/24 16:02:42;;;;;;;6.63;2.47;;;12.90;59.90;;;;;;5004397;28;20070;-77
2020/12/24 16:05:09;;;;;;;11.75;4.82;;;12.90;60.30;;;;;;5017256;28;20317;-76
2020/12/24 16:07:37;;;;;;;7.97;4.10;;;13.10;60.30;;;;;;4989665;28;20042;-77
2020/12/24 16:10:03;;;;;;;4.75;2.30;;;12.90;60.20;;;;;;5002521;28;20045;-77
2020/12/24 16:12:29;;;;;;;6.25;2.33;;;12.90;60.20;;;;;;5000435;28;20022;-76
2020/12/24 16:14:54;;;;;;;2.13;0.93;;;13.00;60.20;;;;;;4997775;28;20045;-76
2020/12/24 16:17:21;;;;;;;2.90;1.00;;;13.00;59.90;;;;;;5003259;28;20037;-76
2020/12/24 16:19:47;;;;;;;3.00;1.27;;;12.90;59.70;;;;;;5003704;28;20018;-76
2020/12/24 16:22:13;;;;;;;4.72;2.13;;;13.00;60.30;;;;;;5003910;28;20022;-76
2020/12/24 16:24:38;;;;;;;2.60;1.42;;;13.10;60.20;;;;;;5002560;28;20032;-77
2020/12/24 16:27:04;;;;;;;3.65;1.95;;;13.10;60.40;;;;;;5018882;28;20237;-76
2020/12/24 16:29:30;;;;;;;6.30;2.85;;;13.10;59.90;;;;;;5003587;28;20263;-76